Lawtons, New York
Current Conditions -  °F | °C
As of 1:53 AM on Friday 28 Nov 2014 (Local Time) from KDKK Reporting Station
Overcast Overcast  
Wind Chill: 15°   Ceiling: 3400
Heat Index: 27°   Visibility: 10mi
Dew Point: 19°   Wind: 15mph
Humidity: 72%   Direction: 300°WNW
Pressure: 30.2"   Gusts: 23mph
Location:  42.54°N, 78.93°W
Report Text: KDKK 280653Z AUTO 30013G20KT 10SM SCT025 BKN034 OVC055 M03/M07 A3020 RMK AO2 SLP237 T10281072
Loading
Personal Weather Stations






























Interactive Weather Map New forecast layout! Learn more

10-Day Weather Forecast

Advertisements
Track Severe Weather on mobile